Stations météo

réclame
Mon MeteoGroup
Bealach, Grande-Bretagne (3039): Température de l'air & dewpoint: 16.06.2018 18:00:00 - 22.06.2018 18:00:00 (BST)Bealach, Grande-Bretagne (3039): Vitesse du vent & gusts: 16.06.2018 18:00:00 - 22.06.2018 18:00:00 (BST)Bealach, Grande-Bretagne (3039): Direction du vent: 16.06.2018 18:00:00 - 22.06.2018 18:00:00 (BST)
Date & Time tt [°C] td [°C] ff [km/h] ff [knt] fx [km/h] fx [knt] dd
22.06.2018 18:00:00 - - - - - - -
22.06.2018 17:00:00 5,6 4,9 31 17 - - W
22.06.2018 16:00:00 5,9 4,8 28 15 46 25 W
22.06.2018 15:00:00 6,3 4,3 37 20 48 26 WNW
22.06.2018 14:00:00 5,9 4,8 28 15 - - W
22.06.2018 13:00:00 5,5 3,6 22 12 - - W
22.06.2018 12:00:00 5,2 4,1 26 14 - - WNW
22.06.2018 11:00:00 4,9 4,6 24 13 - - WNW
22.06.2018 10:00:00 4,8 4,5 26 14 - - WNW
22.06.2018 09:00:00 4,6 4,6 22 12 - - WNW
22.06.2018 08:00:00 3,9 3,9 24 13 - - WNW
22.06.2018 07:00:00 3,8 3,8 21 11 - - NW
22.06.2018 06:00:00 3,7 3,7 31 17 - - NW
22.06.2018 05:00:00 3,4 3,4 29 16 - - NW
22.06.2018 04:00:00 3,7 3,7 24 13 - - NW
22.06.2018 03:00:00 3,4 3,4 26 14 - - NW
22.06.2018 02:00:00 3,6 3,6 29 16 - - NW
22.06.2018 01:00:00 3,8 3,8 28 15 - - NNW
22.06.2018 00:00:00 3,8 3,8 26 14 - - NNW
21.06.2018 23:00:00 4,3 4,3 39 21 48 26 NNW
21.06.2018 22:00:00 4,6 4,6 37 20 - - NNW
21.06.2018 21:00:00 4,4 4,0 37 20 54 29 NNW
21.06.2018 20:00:00 4,7 3,5 44 24 52 28 NNW
21.06.2018 19:00:00 5,2 3,6 41 22 55 30 NW
21.06.2018 18:00:00 5,4 3,8 42 23 54 29 NW
21.06.2018 17:00:00 5,4 3,5 46 25 59 32 NW
21.06.2018 16:00:00 5,4 2,1 41 22 61 33 NNW
21.06.2018 15:00:00 5,3 1,7 42 23 57 31 NW
21.06.2018 14:00:00 5,0 2,0 48 26 59 32 NNW
21.06.2018 13:00:00 4,9 2,3 46 25 61 33 NW
21.06.2018 12:00:00 4,2 2,3 46 25 65 35 NW
21.06.2018 11:00:00 3,8 2,3 52 28 72 39 NW
21.06.2018 10:00:00 4,1 4,0 50 27 67 36 NNW
21.06.2018 09:00:00 3,4 2,2 44 24 70 38 NW
21.06.2018 08:00:00 2,8 2,8 55 30 68 37 NNW
21.06.2018 07:00:00 2,9 2,9 55 30 68 37 NNW
21.06.2018 06:00:00 3,0 3,0 55 30 78 42 NNW
21.06.2018 05:00:00 3,0 3,0 54 29 74 40 NNW
21.06.2018 04:00:00 2,5 2,5 54 29 68 37 NNW
21.06.2018 03:00:00 2,9 2,9 50 27 61 33 NNW
21.06.2018 02:00:00 2,8 2,8 54 29 68 37 NNW
21.06.2018 01:00:00 2,6 2,6 52 28 63 34 NNW
21.06.2018 00:00:00 2,6 2,6 46 25 65 35 NW
20.06.2018 23:00:00 2,0 2,0 42 23 54 29 NW
20.06.2018 22:00:00 1,1 1,1 39 21 59 32 WNW
20.06.2018 21:00:00 1,8 1,8 34 18 78 42 WNW
20.06.2018 20:00:00 3,0 3,0 50 27 67 36 WSW
20.06.2018 19:00:00 3,3 3,2 39 21 55 30 WSW
20.06.2018 18:00:00 3,6 3,4 41 22 55 30 WSW
20.06.2018 17:00:00 3,2 3,0 46 25 55 30 WSW
20.06.2018 16:00:00 4,1 3,1 39 21 63 34 W
20.06.2018 15:00:00 6,2 2,1 42 23 52 28 WSW
20.06.2018 14:00:00 4,7 1,8 35 19 46 25 W
20.06.2018 13:00:00 3,5 0,3 26 14 46 25 WNW
20.06.2018 12:00:00 5,0 -0,7 22 12 - - WNW
20.06.2018 11:00:00 4,2 2,2 28 15 - - WNW
20.06.2018 10:00:00 4,5 0,3 18 10 - - NNW
20.06.2018 09:00:00 3,9 3,2 18 10 - - NNW
20.06.2018 08:00:00 3,8 2,0 15 8 - - N
20.06.2018 07:00:00 3,7 1,8 22 12 - - NNE
20.06.2018 06:00:00 3,1 3,0 21 11 - - N
20.06.2018 05:00:00 3,4 3,0 21 11 - - NE
20.06.2018 04:00:00 3,5 3,1 9 5 - - E
20.06.2018 03:00:00 3,4 2,9 8 4 - - ENE
20.06.2018 02:00:00 4,0 2,6 9 5 - - ESE
20.06.2018 01:00:00 4,3 2,3 15 8 - - E
20.06.2018 00:00:00 4,2 2,1 15 8 - - E
19.06.2018 23:00:00 4,1 1,7 15 8 - - ESE
19.06.2018 22:00:00 4,0 2,8 4 2 - - SE
19.06.2018 21:00:00 4,0 3,4 15 8 - - SSW
19.06.2018 20:00:00 4,5 4,2 18 10 - - SSW
19.06.2018 19:00:00 5,0 3,5 21 11 - - SW
19.06.2018 18:00:00 5,4 2,5 28 15 - - SW
19.06.2018 17:00:00 5,3 2,4 31 17 - - SSW
19.06.2018 16:00:00 5,4 2,8 26 14 - - SW
19.06.2018 15:00:00 5,6 2,3 31 17 - - WSW
19.06.2018 14:00:00 5,6 3,1 39 21 48 26 WSW
19.06.2018 13:00:00 5,1 3,8 37 20 54 29 WSW
19.06.2018 12:00:00 4,9 4,0 50 27 59 32 WSW
19.06.2018 11:00:00 4,6 4,2 48 26 57 31 WSW
19.06.2018 10:00:00 4,5 4,5 46 25 59 32 WSW
19.06.2018 09:00:00 3,7 3,7 44 24 65 35 WSW
19.06.2018 08:00:00 3,7 3,7 54 29 72 39 WSW
19.06.2018 07:00:00 3,4 3,4 55 30 72 39 WSW
19.06.2018 06:00:00 3,4 3,4 54 29 68 37 WSW
19.06.2018 05:00:00 3,1 3,1 54 29 68 37 WSW
19.06.2018 04:00:00 3,5 3,5 61 33 87 47 WSW
19.06.2018 03:00:00 3,5 3,5 65 35 76 41 WSW
19.06.2018 02:00:00 3,7 3,7 57 31 83 45 WSW
19.06.2018 01:00:00 3,6 3,6 65 35 87 47 WSW
19.06.2018 00:00:00 4,1 4,1 65 35 80 43 WSW
18.06.2018 23:00:00 4,1 4,1 55 30 76 41 WSW
18.06.2018 22:00:00 4,0 4,0 63 34 83 45 WSW
18.06.2018 21:00:00 4,2 4,2 63 34 89 48 WSW
18.06.2018 20:00:00 4,2 4,1 67 36 89 48 WSW
18.06.2018 19:00:00 4,5 4,1 72 39 87 47 WSW
18.06.2018 18:00:00 4,1 4,1 74 40 91 49 WSW
18.06.2018 17:00:00 4,7 4,7 52 28 72 39 WSW
18.06.2018 16:00:00 4,8 4,8 42 23 67 36 WSW
18.06.2018 15:00:00 4,9 4,9 57 31 74 40 SW
18.06.2018 14:00:00 4,8 4,8 61 33 81 44 SW
18.06.2018 13:00:00 5,3 4,9 57 31 78 42 SW
18.06.2018 12:00:00 5,0 4,9 65 35 87 47 SSW
18.06.2018 11:00:00 5,5 5,3 55 30 70 38 SW
18.06.2018 10:00:00 5,0 5,0 52 28 63 34 SW
18.06.2018 09:00:00 4,5 4,5 50 27 65 35 WSW
18.06.2018 08:00:00 4,3 4,3 50 27 72 39 WSW
18.06.2018 07:00:00 4,3 4,3 59 32 72 39 WSW
18.06.2018 06:00:00 4,4 4,4 59 32 70 38 WSW
18.06.2018 05:00:00 4,7 4,7 44 24 59 32 SW
18.06.2018 04:00:00 4,7 4,7 42 23 54 29 WSW
18.06.2018 03:00:00 5,1 5,1 41 22 59 32 WSW
18.06.2018 02:00:00 5,8 5,8 41 22 50 27 SW
18.06.2018 01:00:00 6,2 6,2 42 23 55 30 SW
18.06.2018 00:00:00 6,4 6,3 42 23 57 31 WSW
17.06.2018 23:00:00 7,1 7,0 44 24 76 41 SW
17.06.2018 22:00:00 7,9 7,9 63 34 74 40 SSW
17.06.2018 21:00:00 8,1 8,0 59 32 87 47 SSW
17.06.2018 20:00:00 8,0 8,0 72 39 89 48 SSW
17.06.2018 19:00:00 7,5 7,5 29 16 72 39 S
17.06.2018 18:00:00 6,9 6,9 39 21 65 35 SSE
17.06.2018 17:00:00 6,6 6,6 31 17 63 34 SSE
17.06.2018 16:00:00 6,7 6,4 28 15 57 31 S
17.06.2018 15:00:00 6,9 6,1 31 17 57 31 S
17.06.2018 14:00:00 6,4 6,1 28 15 59 32 S
17.06.2018 13:00:00 6,3 6,1 37 20 54 29 S
17.06.2018 12:00:00 6,1 6,0 41 22 55 30 SSW
17.06.2018 11:00:00 6,2 6,2 39 21 55 30 SSW
17.06.2018 10:00:00 5,9 5,9 42 23 54 29 SSW
17.06.2018 09:00:00 5,6 5,6 37 20 48 26 SSW
17.06.2018 08:00:00 4,7 4,6 16 9 - - SSE
17.06.2018 07:00:00 4,6 4,2 24 13 46 25 S
17.06.2018 06:00:00 4,3 3,8 34 18 46 25 S
17.06.2018 05:00:00 4,4 4,4 26 14 - - S
17.06.2018 04:00:00 4,3 4,3 26 14 - - S
17.06.2018 03:00:00 4,8 4,8 28 15 - - S
17.06.2018 02:00:00 4,6 4,6 26 14 - - SSW
17.06.2018 01:00:00 4,9 4,9 22 12 - - SSW
17.06.2018 00:00:00 5,4 5,4 16 9 - - SW
16.06.2018 23:00:00 5,4 5,4 9 5 - - WSW
16.06.2018 22:00:00 5,4 5,4 21 11 - - WNW
16.06.2018 21:00:00 5,7 5,7 28 15 - - WSW
16.06.2018 20:00:00 5,8 5,8 24 13 - - WSW
16.06.2018 19:00:00 6,0 6,0 18 10 - - W
16.06.2018 18:00:00 6,0 5,8 18 10 - - WSW

tt = Température de l'air
td = dewpoint
ff = Vitesse du vent
fx = gusts
dd = Direction du vent

stations d'obs. à proximité